Time;durP1;ratioP1;P1;durP2;ratioP2;P2;SDS_P1;SDS_P2;PMS_P1;PMS_P2;Temp;Humidity;BMP_temperature;BMP_pressure;BME280_temperature;BME280_humidity;BME280_pressure;Samples;Min_cycle;Max_cycle;Signal;HPM_P1;HPM_P2
2021/11/02 00:00:36;;;;;;;8.70;0.87;;;7.10;99.90;;;;;;5051549;28;20501;-90
2021/11/02 00:03:09;;;;;;;3.70;1.40;;;7.20;99.90;;;;;;5054853;28;20462;-92
2021/11/02 00:05:36;;;;;;;2.47;1.20;;;7.50;99.90;;;;;;5048132;28;20490;-92
2021/11/02 00:08:03;;;;;;;2.97;1.77;;;;;;;;;;5054189;28;20470;-90
2021/11/02 00:10:31;;;;;;;8.30;2.40;;;;;;;;;;5049547;28;20458;-89
2021/11/02 00:12:59;;;;;;;3.20;1.83;;;7.30;99.90;;;;;;5053305;28;20450;-90
2021/11/02 00:15:32;;;;;;;2.87;1.33;;;7.30;99.90;;;;;;5051744;28;20443;-91
2021/11/02 00:18:02;;;;;;;2.60;1.67;;;;;;;;;;5054594;28;20954;-89
2021/11/02 00:20:30;;;;;;;1.90;1.60;;;;;;;;;;5054804;28;20884;-89
2021/11/02 00:22:58;;;;;;;2.93;1.57;;;;;;;;;;5053799;28;20846;-93
2021/11/02 00:25:26;;;;;;;1.67;1.43;;;7.40;99.90;;;;;;5054457;28;20496;-90
2021/11/02 00:27:54;;;;;;;2.63;1.53;;;;;;;;;;5053412;28;20447;-91
2021/11/02 00:30:22;;;;;;;2.27;1.33;;;7.40;99.90;;;;;;5049602;28;20968;-90
2021/11/02 00:32:51;;;;;;;1.73;1.63;;;7.40;99.90;;;;;;5054621;28;20476;-90
2021/11/02 00:35:19;;;;;;;0.90;0.80;;;7.50;99.90;;;;;;5051238;28;20494;-89
2021/11/02 00:37:47;;;;;;;3.93;1.67;;;7.50;99.90;;;;;;5054363;28;20461;-90
2021/11/02 00:40:15;;;;;;;2.00;1.10;;;7.50;99.90;;;;;;5054283;28;20449;-92
2021/11/02 00:42:50;;;;;;;1.80;0.90;;;;;;;;;;5053364;28;20494;-89
2021/11/02 00:45:26;;;;;;;6.80;1.67;;;7.60;99.90;;;;;;5054025;28;21046;-92
2021/11/02 00:47:55;;;;;;;1.90;1.53;;;7.90;99.90;;;;;;5054630;28;20443;-89
2021/11/02 00:50:22;;;;;;;3.90;1.40;;;;;;;;;;5054164;28;20450;-92
2021/11/02 00:52:49;;;;;;;2.33;1.33;;;;;;;;;;5054048;28;20465;-91
2021/11/02 00:55:17;;;;;;;3.60;1.70;;;;;;;;;;5053903;28;20447;-89
2021/11/02 00:57:44;;;;;;;3.33;1.43;;;;;;;;;;5053061;28;20450;-90
2021/11/02 01:00:14;;;;;;;3.27;1.63;;;7.70;99.90;;;;;;5054219;28;20466;-90
2021/11/02 01:02:41;;;;;;;2.30;1.00;;;;;;;;;;5050639;28;21008;-89
2021/11/02 01:05:11;;;;;;;2.30;0.97;;;7.70;99.90;;;;;;5053914;28;20447;-88
2021/11/02 01:07:38;;;;;;;1.60;1.50;;;;;;;;;;5053644;28;20877;-91
2021/11/02 01:10:12;;;;;;;1.80;1.00;;;7.60;99.90;;;;;;5048945;28;20504;-88
2021/11/02 01:12:39;;;;;;;1.60;1.30;;;;;;;;;;5018839;28;20462;-89
2021/11/02 01:15:07;;;;;;;2.10;1.50;;;7.70;99.90;;;;;;5052043;28;20458;-91
2021/11/02 01:17:34;;;;;;;3.43;1.17;;;;;;;;;;5059607;28;20454;-91
2021/11/02 01:20:03;;;;;;;2.20;1.20;;;;;;;;;;5054261;28;20469;-89
2021/11/02 01:22:31;;;;;;;2.63;1.20;;;7.60;99.90;;;;;;5053455;28;20504;-90
2021/11/02 01:24:58;;;;;;;1.77;1.07;;;;;;;;;;5053479;28;20447;-91
2021/11/02 01:27:25;;;;;;;4.17;1.17;;;;;;;;;;5050731;28;20922;-90
2021/11/02 01:29:52;;;;;;;3.00;1.60;;;;;;;;;;5051812;28;20461;-89
2021/11/02 01:32:19;;;;;;;3.53;1.10;;;;;;;;;;5053938;28;20439;-90
2021/11/02 01:34:46;;;;;;;2.40;1.17;;;;;;;;;;5054685;28;20466;-90
2021/11/02 01:37:13;;;;;;;1.03;0.93;;;;;;;;;;5054643;28;20461;-89
2021/11/02 01:39:41;;;;;;;1.43;1.00;;;7.60;99.90;;;;;;5056108;28;20529;-91
2021/11/02 01:42:09;;;;;;;3.23;1.37;;;;;;;;;;5056697;28;20848;-92
2021/11/02 01:44:36;;;;;;;2.20;1.17;;;;;;;;;;5054353;28;20488;-89
2021/11/02 01:47:04;;;;;;;1.03;0.90;;;;;;;;;;5057577;28;20450;-91
2021/11/02 01:49:34;;;;;;;2.57;1.10;;;;;;;;;;5054432;28;20442;-94
2021/11/02 01:52:02;;;;;;;1.37;0.77;;;;;;;;;;5059561;28;20480;-89
2021/11/02 01:54:29;;;;;;;0.57;0.40;;;;;;;;;;5063503;28;20541;-92
2021/11/02 01:56:57;;;;;;;4.47;1.27;;;7.70;99.90;;;;;;5057098;28;20454;-90
2021/11/02 01:59:27;;;;;;;1.03;0.70;;;;;;;;;;5057879;28;20549;-90
2021/11/02 02:02:01;;;;;;;1.10;0.70;;;7.60;99.90;;;;;;5056032;28;20524;-92
2021/11/02 02:04:38;;;;;;;2.73;1.13;;;7.50;99.90;;;;;;5057498;28;20458;-91
2021/11/02 02:07:22;;;;;;;2.83;0.97;;;7.40;99.90;;;;;;5057648;28;20446;-90
2021/11/02 02:09:59;;;;;;;1.33;0.97;;;7.40;99.90;;;;;;5057463;28;20529;-90
2021/11/02 02:12:52;;;;;;;3.57;0.80;;;7.30;99.90;;;;;;5049700;28;20446;-93
2021/11/02 02:15:24;;;;;;;1.47;0.70;;;7.30;99.90;;;;;;5057284;28;20478;-92
2021/11/02 02:17:55;;;;;;;3.07;0.90;;;7.30;99.90;;;;;;5057190;28;20442;-92
2021/11/02 02:20:40;;;;;;;1.90;1.20;;;7.30;99.90;;;;;;5054618;28;20474;-91
2021/11/02 02:23:28;;;;;;;3.40;0.80;;;7.20;99.90;;;;;;5056979;28;20497;-91
2021/11/02 02:25:59;;;;;;;6.60;0.97;;;7.20;99.90;;;;;;5053711;28;21007;-91
2021/11/02 02:28:31;;;;;;;0.93;0.67;;;7.10;99.90;;;;;;5056730;28;20443;-91
2021/11/02 02:31:02;;;;;;;2.67;1.00;;;7.10;99.90;;;;;;5056610;28;20457;-91
2021/11/02 02:33:31;;;;;;;1.73;1.10;;;7.10;99.90;;;;;;5056631;28;20490;-92
2021/11/02 02:35:59;;;;;;;8.60;1.13;;;;;;;;;;5056765;28;20512;-93
2021/11/02 02:38:27;;;;;;;1.73;1.00;;;7.10;99.90;;;;;;5057071;28;20439;-91
2021/11/02 02:40:54;;;;;;;0.80;0.80;;;;;;;;;;5056939;28;20454;-91
2021/11/02 02:43:22;;;;;;;1.80;0.77;;;7.00;99.90;;;;;;5054014;28;20892;-92
2021/11/02 02:45:53;;;;;;;1.50;0.83;;;6.90;99.90;;;;;;5057586;28;20454;-86
2021/11/02 02:48:22;;;;;;;2.03;1.33;;;6.90;99.90;;;;;;5064306;28;20438;-90
2021/11/02 02:50:50;;;;;;;0.90;0.80;;;;;;;;;;5054334;28;20791;-89
2021/11/02 02:53:18;;;;;;;3.50;1.70;;;7.00;99.90;;;;;;5056349;28;20461;-89
2021/11/02 02:55:46;;;;;;;1.53;1.30;;;6.90;99.90;;;;;;5021722;28;20541;-90
2021/11/02 02:58:13;;;;;;;3.90;1.33;;;;;;;;;;5055467;28;20439;-91
2021/11/02 03:00:42;;;;;;;1.90;1.27;;;6.90;99.90;;;;;;5054638;28;20458;-90
2021/11/02 03:03:13;;;;;;;1.30;1.13;;;6.90;99.90;;;;;;5056098;28;20516;-89
2021/11/02 03:05:40;;;;;;;2.23;1.07;;;;;;;;;;5052954;28;20447;-89
2021/11/02 03:08:08;;;;;;;1.90;0.97;;;;;;;;;;5056457;28;20443;-89
2021/11/02 03:10:37;;;;;;;1.23;0.60;;;6.70;99.90;;;;;;5055955;28;20534;-90
2021/11/02 03:13:09;;;;;;;7.23;1.70;;;6.70;99.90;;;;;;5052392;28;20454;-92
2021/11/02 03:15:58;;;;;;;1.30;1.20;;;6.80;99.90;;;;;;5019856;28;21000;-92
2021/11/02 03:49:25;;;;;;;4.50;0.80;;;6.50;99.90;;;;;;5029834;28;20433;-90
2021/11/02 03:54:45;;;;;;;2.73;0.80;;;6.60;99.90;;;;;;5055472;28;20948;-93
2021/11/02 05:48:17;;;;;;;2.93;2.43;;;5.10;99.90;;;;;;5054756;28;20421;-92
2021/11/02 05:51:04;;;;;;;12.43;7.20;;;;;;;;;;5053364;28;20450;-90
2021/11/02 05:53:51;;;;;;;14.93;7.23;;;;;;;;;;5052014;28;20503;-91
2021/11/02 05:56:23;;;;;;;8.70;5.70;;;;;;;;;;5052167;28;20453;-90
2021/11/02 05:58:58;;;;;;;6.70;3.13;;;;;;;;;;5049511;28;20994;-92
2021/11/02 06:04:35;;;;;;;3.53;1.90;;;5.10;99.90;;;;;;5053198;28;20496;-90
2021/11/02 06:07:26;;;;;;;4.57;2.20;;;5.00;99.90;;;;;;5050269;28;20466;-89
2021/11/02 06:10:02;;;;;;;9.87;3.00;;;4.90;99.90;;;;;;5047405;28;20534;-91
2021/11/02 06:29:23;;;;;;;2.97;2.67;;;;;;;;;;5058183;28;20468;-90
2021/11/02 06:31:54;;;;;;;5.70;2.80;;;;;;;;;;5073778;28;20430;-89
2021/11/02 06:34:30;;;;;;;9.23;8.37;;;;;;;;;;5070325;28;20508;-90
2021/11/02 06:37:24;;;;;;;4.03;3.10;;;5.00;99.90;;;;;;5057265;28;20810;-90
2021/11/02 06:40:16;;;;;;;3.33;2.50;;;5.10;99.90;;;;;;5033327;28;20513;-89
2021/11/02 06:42:58;;;;;;;4.03;1.70;;;;;;;;;;5035730;28;20483;-91
2021/11/02 06:48:26;;;;;;;1.30;1.17;;;5.60;99.90;;;;;;5035637;28;20821;-87
2021/11/02 07:19:57;;;;;;;4.10;1.57;;;7.00;99.90;;;;;;5154243;27;20450;-89
2021/11/02 07:25:13;;;;;;;2.13;1.17;;;7.60;99.90;;;;;;5151592;27;20438;-91
2021/11/02 08:45:50;;;;;;;3.20;2.50;;;;;;;;;;5098043;28;20561;-88
2021/11/02 08:48:17;;;;;;;0.67;0.60;;;;;;;;;;5101620;28;20452;-91
2021/11/02 08:50:50;;;;;;;1.33;1.23;;;8.60;99.90;;;;;;5119089;27;20451;-89
2021/11/02 08:53:20;;;;;;;2.40;1.50;;;8.60;99.90;;;;;;5118127;27;20478;-89
2021/11/02 08:55:49;;;;;;;1.60;0.83;;;;;;;;;;5124604;27;20450;-90
2021/11/02 08:58:19;;;;;;;1.83;1.20;;;8.30;99.90;;;;;;5135843;27;20451;-93
2021/11/02 09:00:47;;;;;;;3.27;1.33;;;;;;;;;;5137082;27;20505;-93
2021/11/02 09:03:19;;;;;;;3.33;0.70;;;8.10;99.90;;;;;;5136509;27;20554;-89
2021/11/02 09:05:49;;;;;;;1.83;0.83;;;8.10;99.90;;;;;;5133781;27;20969;-90
2021/11/02 09:08:16;;;;;;;1.60;1.50;;;;;;;;;;5137692;27;20443;-92
2021/11/02 09:10:43;;;;;;;2.80;1.10;;;;;;;;;;5136582;27;20448;-88
2021/11/02 09:13:11;;;;;;;1.17;1.07;;;8.30;99.90;;;;;;5131706;27;20439;-88
2021/11/02 09:15:39;;;;;;;1.83;1.10;;;8.10;99.90;;;;;;5146628;27;20447;-90
2021/11/02 09:18:08;;;;;;;1.83;1.20;;;8.10;99.90;;;;;;5137277;27;20446;-88
2021/11/02 09:20:35;;;;;;;1.10;0.73;;;;;;;;;;5137032;27;20435;-90
2021/11/02 09:23:02;;;;;;;1.20;1.00;;;;;;;;;;5136210;27;20463;-90
2021/11/02 09:25:30;;;;;;;2.67;1.13;;;;;;;;;;5135345;27;20443;-92
2021/11/02 09:27:57;;;;;;;2.50;1.10;;;;;;;;;;5125209;27;20463;-94
2021/11/02 09:30:24;;;;;;;1.40;1.00;;;7.90;99.90;;;;;;5115585;28;20955;-88
2021/11/02 09:32:55;;;;;;;2.67;1.40;;;;;;;;;;5115314;28;20491;-92
2021/11/02 09:35:24;;;;;;;1.47;1.33;;;7.80;99.90;;;;;;5123785;28;20443;-95
2021/11/02 09:38:06;;;;;;;1.30;0.80;;;7.80;99.90;;;;;;5117674;28;20444;-94
2021/11/02 09:41:16;;;;;;;2.20;1.33;;;7.70;99.90;;;;;;5112319;28;20455;-94
2021/11/02 09:44:18;;;;;;;5.43;1.60;;;7.80;99.90;;;;;;5121027;28;20427;-89
2021/11/02 09:47:27;;;;;;;2.03;1.50;;;7.80;99.90;;;;;;5125433;28;20463;-88
2021/11/02 09:50:27;;;;;;;1.07;0.50;;;7.60;99.90;;;;;;5123100;28;20443;-93
2021/11/02 09:53:24;;;;;;;1.33;0.80;;;7.60;99.90;;;;;;5122321;28;20451;-89
2021/11/02 09:56:18;;;;;;;2.47;0.80;;;7.50;99.90;;;;;;5120191;28;20521;-93
2021/11/02 09:59:14;;;;;;;1.47;0.80;;;7.60;99.90;;;;;;5120381;28;20463;-90
2021/11/02 10:01:49;;;;;;;0.70;0.70;;;7.60;99.90;;;;;;5125145;28;20494;-89
2021/11/02 10:04:55;;;;;;;2.53;1.50;;;7.60;99.90;;;;;;5119031;28;20458;-89
2021/11/02 10:07:49;;;;;;;3.00;1.23;;;7.60;99.90;;;;;;5126440;28;20462;-89
2021/11/02 10:10:22;;;;;;;4.03;1.63;;;7.70;99.90;;;;;;5077710;28;20489;-90
2021/11/02 10:12:59;;;;;;;2.50;1.10;;;7.70;99.90;;;;;;5069916;28;20476;-88
2021/11/02 10:15:46;;;;;;;3.13;1.50;;;7.80;99.90;;;;;;5069027;28;20456;-89
2021/11/02 10:18:40;;;;;;;6.27;5.37;;;7.70;99.90;;;;;;5069212;28;20537;-88
2021/11/02 10:21:47;;;;;;;4.27;2.80;;;7.70;99.90;;;;;;4987016;28;20493;-90
2021/11/02 10:24:50;;;;;;;9.47;2.60;;;7.70;99.90;;;;;;4991348;28;20453;-90
2021/11/02 10:27:43;;;;;;;6.00;3.23;;;7.70;99.90;;;;;;4994416;28;20481;-88
2021/11/02 10:30:43;;;;;;;9.53;5.70;;;7.80;99.90;;;;;;4977617;28;20452;-88
2021/11/02 10:33:20;;;;;;;5.30;3.53;;;7.60;99.90;;;;;;4989654;28;20472;-91
2021/11/02 10:36:16;;;;;;;4.40;3.53;;;7.60;99.90;;;;;;4992853;28;20468;-89
2021/11/02 10:39:02;;;;;;;2.37;2.17;;;7.60;99.90;;;;;;4989177;28;20457;-89
2021/11/02 10:41:41;;;;;;;2.57;1.60;;;7.60;99.90;;;;;;5009750;28;20552;-89
2021/11/02 10:44:30;;;;;;;15.57;9.97;;;7.80;99.90;;;;;;5032966;28;20478;-90
2021/11/02 10:47:05;;;;;;;16.90;12.40;;;7.80;99.90;;;;;;5038958;28;20450;-89
2021/11/02 10:49:57;;;;;;;4.07;2.60;;;7.80;99.90;;;;;;5042599;28;20454;-88
2021/11/02 10:52:27;;;;;;;12.47;8.67;;;7.90;99.90;;;;;;5034547;28;20448;-89
2021/11/02 10:55:20;;;;;;;4.03;2.57;;;8.00;99.90;;;;;;5054032;28;20446;-89
2021/11/02 10:58:05;;;;;;;8.57;4.50;;;8.00;99.90;;;;;;5053164;28;20796;-88
2021/11/02 11:00:35;;;;;;;14.90;10.60;;;8.00;99.90;;;;;;5054231;28;20478;-90
2021/11/02 11:03:07;;;;;;;6.70;3.63;;;8.00;99.90;;;;;;5053819;28;20540;-90
2021/11/02 11:05:34;;;;;;;13.00;8.30;;;;;;;;;;5045420;28;20454;-89
2021/11/02 11:08:03;;;;;;;12.07;6.80;;;;;;;;;;5035529;28;20446;-90
2021/11/02 11:10:31;;;;;;;2.50;2.00;;;8.00;99.90;;;;;;5035743;28;20459;-88
2021/11/02 11:13:00;;;;;;;3.30;1.90;;;8.20;99.90;;;;;;5033388;28;20497;-90
2021/11/02 11:15:27;;;;;;;9.27;5.67;;;;;;;;;;5036429;28;20447;-89
2021/11/02 11:18:04;;;;;;;7.90;5.43;;;8.30;99.90;;;;;;5034108;28;20447;-91
2021/11/02 11:20:33;;;;;;;29.13;14.63;;;8.40;99.90;;;;;;5034023;28;20443;-91
2021/11/02 11:23:07;;;;;;;9.10;5.43;;;8.50;99.90;;;;;;5036570;28;20497;-94
2021/11/02 11:25:43;;;;;;;5.87;4.17;;;8.40;99.90;;;;;;5037729;28;20478;-90
2021/11/02 11:28:13;;;;;;;6.93;3.70;;;8.70;99.90;;;;;;5034028;28;20443;-91
2021/11/02 11:30:42;;;;;;;2.20;1.70;;;8.70;99.90;;;;;;5036173;28;20946;-93
2021/11/02 11:33:13;;;;;;;3.87;2.40;;;8.60;99.90;;;;;;5053377;28;20620;-91
2021/11/02 11:35:41;;;;;;;2.67;1.30;;;;;;;;;;5052400;28;20478;-90
2021/11/02 11:38:10;;;;;;;3.23;1.60;;;9.10;99.90;;;;;;5053757;28;20450;-90
2021/11/02 11:40:38;;;;;;;4.20;2.23;;;9.20;99.90;;;;;;5054284;28;20473;-90
2021/11/02 11:43:07;;;;;;;3.00;1.73;;;9.00;99.90;;;;;;5076227;28;20493;-91
2021/11/02 11:45:36;;;;;;;3.00;2.50;;;9.30;99.90;;;;;;5076226;28;20457;-93
2021/11/02 11:48:08;;;;;;;3.27;2.97;;;9.40;99.90;;;;;;5075740;28;20881;-91
2021/11/02 11:50:39;;;;;;;3.20;1.70;;;9.40;99.90;;;;;;5078005;28;20434;-91
2021/11/02 11:53:06;;;;;;;1.10;1.00;;;9.50;99.90;;;;;;5078282;28;20932;-92
2021/11/02 11:55:39;;;;;;;2.20;1.00;;;9.40;99.90;;;;;;5076958;28;20460;-93
2021/11/02 11:58:08;;;;;;;0.83;0.70;;;9.10;99.90;;;;;;5078989;28;20445;-93
2021/11/02 12:00:37;;;;;;;1.20;0.80;;;9.40;99.90;;;;;;5087802;28;20485;-89
2021/11/02 12:03:11;;;;;;;1.67;0.43;;;9.10;99.90;;;;;;5040540;22;20499;-89
2021/11/02 12:05:44;;;;;;;1.20;0.83;;;9.10;99.90;;;;;;5024453;28;20447;-88
2021/11/02 12:08:21;;;;;;;2.57;0.70;;;9.10;99.90;;;;;;5026875;28;20456;-89
2021/11/02 12:10:51;;;;;;;1.83;1.53;;;9.10;99.90;;;;;;5036217;23;20498;-88
2021/11/02 12:13:19;;;;;;;0.90;0.80;;;;;;;;;;5029079;28;20464;-89
2021/11/02 12:15:59;;;;;;;0.50;0.50;;;9.00;99.90;;;;;;5026282;28;20456;-94
2021/11/02 12:18:29;;;;;;;0.77;0.63;;;8.90;99.90;;;;;;5014998;28;21026;-94
2021/11/02 12:20:58;;;;;;;0.83;0.30;;;;;;;;;;5026842;23;20514;-95
2021/11/02 12:23:42;;;;;;;2.50;2.30;;;8.90;99.90;;;;;;5020525;28;20491;-93
2021/11/02 12:26:09;;;;;;;0.80;0.67;;;;;;;;;;4962538;28;20482;-93
2021/11/02 12:28:41;;;;;;;4.93;2.77;;;8.90;99.90;;;;;;4965692;29;20498;-93
2021/11/02 12:31:10;;;;;;;1.40;0.57;;;9.00;99.90;;;;;;4960611;29;20558;-94
2021/11/02 12:33:44;;;;;;;0.70;0.60;;;9.10;99.90;;;;;;4961100;29;20463;-95
2021/11/02 12:36:22;;;;;;;0.70;0.67;;;9.10;99.90;;;;;;4967288;29;20439;-94
2021/11/02 12:38:51;;;;;;;0.40;0.30;;;9.10;99.90;;;;;;4968878;29;20447;-94
2021/11/02 12:41:20;;;;;;;0.43;0.30;;;9.00;99.90;;;;;;4966679;29;20451;-95
2021/11/02 12:43:48;;;;;;;0.50;0.33;;;;;;;;;;4969278;28;20944;-94
2021/11/02 12:46:16;;;;;;;1.20;0.87;;;;;;;;;;5017747;28;20441;-92
2021/11/02 12:48:46;;;;;;;1.87;1.20;;;9.50;99.90;;;;;;5013331;28;20456;-89
2021/11/02 12:51:25;;;;;;;0.73;0.60;;;10.00;99.90;;;;;;5004782;28;20445;-93
2021/11/02 12:53:59;;;;;;;0.63;0.50;;;11.00;99.90;;;;;;4996287;28;20937;-92
2021/11/02 12:56:29;;;;;;;0.77;0.63;;;11.20;99.90;;;;;;4996335;28;20544;-94
2021/11/02 12:59:03;;;;;;;0.73;0.30;;;10.90;99.90;;;;;;4998052;28;20449;-92
2021/11/02 13:01:35;;;;;;;1.00;0.77;;;10.60;99.90;;;;;;4998250;28;20560;-95
2021/11/02 13:04:05;;;;;;;3.10;2.03;;;10.40;99.90;;;;;;5001844;28;20900;-91
2021/11/02 13:06:46;;;;;;;3.10;1.70;;;10.40;99.90;;;;;;5035763;23;20497;-93
2021/11/02 13:09:18;;;;;;;1.57;1.00;;;9.90;99.90;;;;;;5047835;28;20432;-95
2021/11/02 13:12:19;;;;;;;1.87;1.23;;;9.70;99.90;;;;;;5050706;28;20435;-90
2021/11/02 13:14:48;;;;;;;1.57;0.83;;;9.50;99.90;;;;;;5056477;28;20461;-91
2021/11/02 13:20:35;;;;;;;6.53;3.20;;;9.40;99.90;;;;;;5041055;28;20439;-92
2021/11/02 13:23:10;;;;;;;1.23;0.70;;;9.30;99.90;;;;;;5037835;28;20483;-88
2021/11/02 13:25:39;;;;;;;1.90;1.20;;;9.20;99.90;;;;;;5037571;28;20461;-95
2021/11/02 13:28:06;;;;;;;1.47;0.80;;;;;;;;;;5037559;28;20824;-95
2021/11/02 13:30:36;;;;;;;2.37;2.20;;;9.00;99.90;;;;;;5038138;28;20443;-95
2021/11/02 13:33:05;;;;;;;1.00;0.90;;;8.90;99.90;;;;;;5038734;28;20443;-93
2021/11/02 13:35:53;;;;;;;0.83;0.43;;;8.90;99.90;;;;;;5038020;28;20920;-90
2021/11/02 13:38:33;;;;;;;2.80;1.67;;;8.90;99.90;;;;;;5036423;28;20787;-89
2021/11/02 13:41:04;;;;;;;0.70;0.57;;;9.00;99.90;;;;;;5034994;28;20452;-94
2021/11/02 13:43:36;;;;;;;1.33;0.50;;;8.80;99.90;;;;;;5036414;28;20571;-87
2021/11/02 13:46:04;;;;;;;7.47;4.67;;;8.80;99.90;;;;;;5042006;28;20482;-90
2021/11/02 13:48:32;;;;;;;6.13;3.30;;;;;;;;;;5040640;28;20452;-94
2021/11/02 13:51:00;;;;;;;2.87;1.47;;;;;;;;;;5039232;28;20981;-92
2021/11/02 13:53:32;;;;;;;1.37;0.40;;;8.80;99.90;;;;;;5041618;23;20942;-92
2021/11/02 13:56:01;;;;;;;2.67;1.40;;;8.80;99.90;;;;;;4969028;28;20540;-94
2021/11/02 13:58:28;;;;;;;1.20;1.00;;;;;;;;;;5016952;28;20450;-88
2021/11/02 14:00:56;;;;;;;3.33;1.80;;;;;;;;;;5014131;28;20479;-88
2021/11/02 14:03:28;;;;;;;0.87;0.47;;;9.50;99.90;;;;;;5013753;28;21003;-91
2021/11/02 14:05:56;;;;;;;0.50;0.30;;;9.90;99.90;;;;;;5016671;28;20441;-96
2021/11/02 14:08:24;;;;;;;6.43;2.67;;;;;;;;;;5015365;28;20448;-91
2021/11/02 14:10:57;;;;;;;2.73;1.43;;;11.00;99.90;;;;;;5014904;28;20444;-92
2021/11/02 14:13:42;;;;;;;0.60;0.40;;;10.50;99.90;;;;;;5013667;28;20448;-88
2021/11/02 14:16:09;;;;;;;0.50;0.30;;;;;;;;;;4980494;28;20523;-93
2021/11/02 14:18:39;;;;;;;1.40;0.50;;;9.80;99.90;;;;;;5014611;28;20448;-87
2021/11/02 14:21:06;;;;;;;1.47;0.87;;;;;;;;;;5011719;28;20531;-87
2021/11/02 14:23:37;;;;;;;0.50;0.30;;;10.20;99.90;;;;;;5014285;28;20500;-89
2021/11/02 14:26:35;;;;;;;0.40;0.30;;;9.60;99.90;;;;;;5015040;28;20564;-89
2021/11/02 14:29:05;;;;;;;0.60;0.33;;;9.40;99.90;;;;;;4999772;28;20502;-89
2021/11/02 14:31:52;;;;;;;0.60;0.40;;;9.10;99.90;;;;;;5012964;28;21076;-93
2021/11/02 14:34:50;;;;;;;1.17;0.73;;;9.20;99.90;;;;;;5009083;28;20484;-92
2021/11/02 14:37:19;;;;;;;0.50;0.30;;;9.20;99.90;;;;;;5012001;28;20433;-87
2021/11/02 14:40:03;;;;;;;0.83;0.50;;;9.50;99.90;;;;;;5012027;28;20456;-94
2021/11/02 14:42:47;;;;;;;0.90;0.40;;;9.40;99.90;;;;;;5019114;28;20553;-92
2021/11/02 14:45:18;;;;;;;0.47;0.20;;;9.20;99.90;;;;;;5018453;28;20436;-95
2021/11/02 14:47:45;;;;;;;0.97;0.50;;;;;;;;;;5015411;28;20491;-91
2021/11/02 14:50:39;;;;;;;0.60;0.37;;;9.10;99.90;;;;;;5014107;28;20452;-94
2021/11/02 14:53:14;;;;;;;0.40;0.30;;;9.00;99.90;;;;;;4996234;28;20477;-87
2021/11/02 14:55:53;;;;;;;1.03;0.50;;;8.90;99.90;;;;;;4956241;28;20450;-92
2021/11/02 14:58:57;;;;;;;0.90;0.40;;;8.70;99.90;;;;;;4959975;28;20455;-94
2021/11/02 15:01:48;;;;;;;1.17;0.60;;;8.70;99.90;;;;;;4974663;28;20446;-91
2021/11/02 15:04:18;;;;;;;0.40;0.30;;;8.60;99.90;;;;;;4975803;28;20862;-88
2021/11/02 15:06:48;;;;;;;0.50;0.40;;;8.50;99.90;;;;;;4976310;28;20538;-91
2021/11/02 15:09:18;;;;;;;0.80;0.50;;;8.50;99.90;;;;;;4972810;28;20455;-88
2021/11/02 15:11:46;;;;;;;0.40;0.20;;;8.50;99.90;;;;;;4956376;29;20482;-92
2021/11/02 15:14:15;;;;;;;1.47;0.40;;;8.40;99.90;;;;;;4955181;29;20462;-92
2021/11/02 15:16:45;;;;;;;1.30;0.43;;;8.30;99.90;;;;;;4955006;29;20862;-92
2021/11/02 15:19:12;;;;;;;0.60;0.30;;;;;;;;;;4958632;28;20870;-90
2021/11/02 15:21:41;;;;;;;0.40;0.20;;;8.20;99.90;;;;;;4967688;28;20474;-88
2021/11/02 15:24:09;;;;;;;0.50;0.30;;;;;;;;;;4970784;28;21010;-86
2021/11/02 15:26:44;;;;;;;0.70;0.30;;;8.20;99.90;;;;;;4985153;28;20822;-86
2021/11/02 15:29:12;;;;;;;0.60;0.40;;;8.20;99.90;;;;;;4985325;28;20460;-93
2021/11/02 15:31:39;;;;;;;2.37;1.00;;;;;;;;;;4985679;28;20813;-89
2021/11/02 15:34:16;;;;;;;0.50;0.33;;;8.20;99.90;;;;;;4984283;28;20446;-88
2021/11/02 15:36:44;;;;;;;0.60;0.43;;;8.10;99.90;;;;;;4979037;28;20536;-88
2021/11/02 15:39:11;;;;;;;1.90;0.60;;;8.00;99.90;;;;;;4982217;28;20450;-87
2021/11/02 15:41:39;;;;;;;0.60;0.50;;;;;;;;;;4980580;28;20441;-89
2021/11/02 15:44:13;;;;;;;4.70;0.97;;;7.90;99.90;;;;;;4988216;28;20486;-89
2021/11/02 15:46:42;;;;;;;0.40;0.30;;;7.80;99.90;;;;;;4987111;28;20476;-89
2021/11/02 15:49:10;;;;;;;1.70;0.40;;;7.80;99.90;;;;;;4987386;28;20482;-89
2021/11/02 15:51:40;;;;;;;0.70;0.47;;;7.80;99.90;;;;;;4988908;28;20477;-89
2021/11/02 15:54:11;;;;;;;0.90;0.50;;;7.80;99.90;;;;;;5001192;28;20511;-92
2021/11/02 15:56:38;;;;;;;0.70;0.40;;;;;;;;;;5024036;28;20535;-90
2021/11/02 15:59:07;;;;;;;0.60;0.50;;;7.70;99.90;;;;;;5021130;28;20454;-88
2021/11/02 16:01:42;;;;;;;0.50;0.40;;;7.70;99.90;;;;;;5019128;28;20448;-89
2021/11/02 16:04:18;;;;;;;0.70;0.57;;;7.60;99.90;;;;;;5017199;28;20836;-87
2021/11/02 16:07:04;;;;;;;2.73;0.57;;;7.60;99.90;;;;;;5016750;28;20459;-88
2021/11/02 16:09:47;;;;;;;0.80;0.70;;;7.60;99.90;;;;;;5017338;28;20468;-92
2021/11/02 16:12:17;;;;;;;2.20;0.57;;;7.50;99.90;;;;;;5021134;28;20452;-86
2021/11/02 16:15:08;;;;;;;0.67;0.40;;;7.30;99.90;;;;;;5027966;28;20463;-90
2021/11/02 16:17:40;;;;;;;2.00;0.70;;;7.40;99.90;;;;;;5039545;28;20443;-91
2021/11/02 16:20:13;;;;;;;1.97;0.60;;;7.30;99.90;;;;;;5019658;28;20524;-87
2021/11/02 16:22:52;;;;;;;0.60;0.50;;;7.40;99.90;;;;;;5017508;28;20452;-87
2021/11/02 16:25:19;;;;;;;1.30;0.83;;;;;;;;;;5014543;28;20448;-89
2021/11/02 16:27:55;;;;;;;0.90;0.70;;;7.20;99.90;;;;;;5021243;28;20448;-91
2021/11/02 16:30:29;;;;;;;0.80;0.57;;;7.40;99.90;;;;;;5021038;28;20452;-88
2021/11/02 16:32:57;;;;;;;1.40;0.60;;;7.50;99.90;;;;;;5021305;28;20511;-89
2021/11/02 16:35:48;;;;;;;0.80;0.63;;;7.70;99.90;;;;;;5017284;23;20483;-87
2021/11/02 16:38:28;;;;;;;0.53;0.50;;;7.70;99.90;;;;;;5033445;28;20451;-88
2021/11/02 16:41:00;;;;;;;1.00;0.80;;;7.60;99.90;;;;;;5028948;28;20448;-89
2021/11/02 16:43:33;;;;;;;1.67;1.00;;;7.60;99.90;;;;;;5026828;28;20496;-90
2021/11/02 16:46:00;;;;;;;1.77;0.90;;;;;;;;;;5026160;28;20459;-90
2021/11/02 16:48:43;;;;;;;1.07;0.90;;;7.40;99.90;;;;;;5023948;28;20456;-91
2021/11/02 16:51:12;;;;;;;2.70;1.00;;;7.50;99.90;;;;;;5000975;28;20445;-94
2021/11/02 16:53:41;;;;;;;1.90;0.83;;;7.50;99.90;;;;;;5018859;28;20943;-89
2021/11/02 16:56:21;;;;;;;1.63;1.20;;;7.50;99.90;;;;;;4997685;28;20456;-91
2021/11/02 16:58:50;;;;;;;1.33;1.10;;;7.60;99.90;;;;;;4999452;28;20457;-92
2021/11/02 17:01:32;;;;;;;1.90;0.97;;;7.40;99.90;;;;;;5000760;28;20452;-88
2021/11/02 17:04:13;;;;;;;1.33;1.10;;;7.30;99.90;;;;;;4998330;28;20584;-93
2021/11/02 17:06:40;;;;;;;2.73;1.10;;;;;;;;;;4998132;28;20472;-93
2021/11/02 17:09:17;;;;;;;1.50;1.30;;;7.30;99.90;;;;;;4997492;28;20505;-89
2021/11/02 17:11:51;;;;;;;3.80;1.30;;;7.40;99.90;;;;;;4998005;28;20459;-93
2021/11/02 17:14:18;;;;;;;1.00;0.90;;;;;;;;;;5002956;28;20525;-94
2021/11/02 17:16:53;;;;;;;1.20;1.00;;;7.40;99.90;;;;;;5002784;28;20816;-88
2021/11/02 17:19:21;;;;;;;1.50;1.33;;;7.30;99.90;;;;;;5000939;28;20447;-90
2021/11/02 17:21:50;;;;;;;3.30;1.50;;;7.30;99.90;;;;;;5010099;28;20421;-89
2021/11/02 17:24:24;;;;;;;2.93;2.60;;;7.20;99.90;;;;;;5007666;28;20488;-89
2021/11/02 17:26:51;;;;;;;7.63;5.17;;;;;;;;;;5022714;28;20440;-92
2021/11/02 17:29:25;;;;;;;9.70;7.83;;;7.20;99.90;;;;;;5024481;28;20491;-93
2021/11/02 17:31:52;;;;;;;16.10;14.43;;;;;;;;;;5022588;28;21040;-91
2021/11/02 17:34:24;;;;;;;11.17;10.07;;;7.20;99.90;;;;;;5024724;28;20975;-92
2021/11/02 17:36:56;;;;;;;6.67;6.17;;;7.20;99.90;;;;;;5020915;28;20452;-92
2021/11/02 17:39:28;;;;;;;4.37;3.97;;;7.20;99.90;;;;;;5022638;28;20437;-91
2021/11/02 17:41:55;;;;;;;2.60;1.60;;;;;;;;;;5017693;28;20459;-91
2021/11/02 17:44:22;;;;;;;2.20;2.00;;;;;;;;;;5017881;28;20492;-89
2021/11/02 17:46:50;;;;;;;2.77;2.20;;;;;;;;;;5014471;28;20470;-91
2021/11/02 17:49:17;;;;;;;1.90;1.80;;;;;;;;;;5025352;28;20830;-90
2021/11/02 17:51:45;;;;;;;7.83;4.53;;;6.90;99.90;;;;;;5025325;28;20479;-92
2021/11/02 17:54:13;;;;;;;11.33;8.20;;;7.00;99.90;;;;;;5016302;28;20464;-90
2021/11/02 17:56:43;;;;;;;4.10;3.50;;;6.90;99.90;;;;;;5014819;28;20522;-91
2021/11/02 17:59:11;;;;;;;5.33;1.93;;;;;;;;;;5015584;28;20453;-91
2021/11/02 18:01:38;;;;;;;2.20;2.00;;;;;;;;;;5016103;28;20452;-92
2021/11/02 18:04:05;;;;;;;3.17;2.87;;;;;;;;;;5015274;28;20488;-92
2021/11/02 18:06:33;;;;;;;1.70;1.60;;;;;;;;;;5015871;28;20461;-92
2021/11/02 18:09:00;;;;;;;20.87;14.47;;;;;;;;;;5015440;28;20456;-92
2021/11/02 18:11:28;;;;;;;7.37;5.70;;;;;;;;;;5011982;28;20719;-92
2021/11/02 18:13:57;;;;;;;1.60;1.37;;;;;;;;;;5016056;28;20471;-92
2021/11/02 18:16:24;;;;;;;2.70;1.77;;;;;;;;;;5016091;28;20440;-91
2021/11/02 18:19:01;;;;;;;9.33;8.63;;;6.30;99.90;;;;;;5015314;28;20440;-91
2021/11/02 18:21:29;;;;;;;5.37;4.40;;;;;;;;;;5016645;28;20459;-91
2021/11/02 18:23:56;;;;;;;4.90;4.50;;;;;;;;;;5016866;28;20484;-91
2021/11/02 18:26:24;;;;;;;4.10;3.70;;;6.00;99.90;;;;;;5015499;28;20471;-93
2021/11/02 18:28:52;;;;;;;5.10;2.90;;;5.90;99.90;;;;;;5016779;28;20452;-93
2021/11/02 18:31:22;;;;;;;2.80;2.50;;;5.70;99.90;;;;;;5010868;28;20456;-91
2021/11/02 18:33:49;;;;;;;3.60;3.30;;;;;;;;;;5019914;28;20459;-93
2021/11/02 18:36:19;;;;;;;2.50;2.10;;;5.80;99.90;;;;;;5052097;23;20485;-93
2021/11/02 18:38:51;;;;;;;5.63;2.87;;;5.90;99.90;;;;;;5031463;23;20556;-93